createdAt,value
2022-12-25T00:01:38.515Z,37.55
2022-12-25T00:04:05.128Z,37.85
2022-12-25T00:06:31.530Z,39.00
2022-12-25T00:08:57.898Z,38.30
2022-12-25T00:11:24.310Z,38.30
2022-12-25T00:13:50.807Z,37.95
2022-12-25T00:16:19.989Z,35.78
2022-12-25T00:18:46.773Z,34.13
2022-12-25T00:21:14.343Z,35.90
2022-12-25T00:23:41.020Z,36.13
2022-12-25T00:26:10.746Z,36.25
2022-12-25T00:28:37.400Z,37.53
2022-12-25T00:31:08.575Z,38.75
2022-12-25T00:33:37.009Z,34.97
2022-12-25T00:36:06.094Z,34.45
2022-12-25T00:38:34.439Z,36.28
2022-12-25T00:41:07.795Z,37.20
2022-12-25T00:43:34.638Z,36.60
2022-12-25T00:46:03.813Z,38.05
2022-12-25T00:48:31.187Z,39.50
2022-12-25T00:51:00.126Z,38.83
2022-12-25T00:53:27.880Z,38.20
2022-12-25T00:55:57.140Z,37.53
2022-12-25T00:58:24.297Z,39.33
2022-12-25T01:00:51.040Z,39.55
2022-12-25T01:03:18.607Z,39.53
2022-12-25T01:05:55.000Z,38.15
2022-12-25T01:08:21.338Z,39.38
2022-12-25T01:10:54.738Z,40.83
2022-12-25T01:13:21.401Z,38.35
2022-12-25T01:15:47.943Z,41.75
2022-12-25T01:18:14.371Z,39.05
2022-12-25T01:20:40.778Z,39.15
2022-12-25T01:23:07.255Z,41.28
2022-12-25T01:25:33.652Z,41.17
2022-12-25T01:28:00.005Z,42.35
2022-12-25T01:30:26.454Z,39.92
2022-12-25T01:32:52.780Z,41.10
2022-12-25T01:35:20.244Z,40.80
2022-12-25T01:37:46.621Z,37.88
2022-12-25T01:40:13.191Z,39.90
2022-12-25T01:42:39.644Z,38.83
2022-12-25T01:45:40.781Z,42.35
2022-12-25T01:48:12.974Z,38.03
2022-12-25T01:50:43.095Z,41.67
2022-12-25T01:53:09.694Z,42.60
2022-12-25T01:55:37.689Z,40.42
2022-12-25T01:58:04.473Z,45.20
2022-12-25T02:00:31.009Z,41.55
2022-12-25T02:02:58.232Z,39.15
2022-12-25T02:05:29.174Z,38.25
2022-12-25T02:07:57.895Z,43.13
2022-12-25T02:10:24.276Z,40.95
2022-12-25T02:12:51.305Z,42.28
2022-12-25T02:15:20.374Z,42.67
2022-12-25T02:18:03.569Z,45.20
2022-12-25T02:21:07.503Z,43.65
2022-12-25T02:24:27.784Z,40.13
2022-12-25T02:27:20.210Z,39.50
2022-12-25T02:29:55.356Z,39.67
2022-12-25T02:32:46.893Z,41.00
2022-12-25T02:35:23.932Z,40.28
2022-12-25T02:38:33.843Z,41.90
2022-12-25T02:41:07.279Z,40.95
2022-12-25T02:43:57.557Z,40.67
2022-12-25T02:46:43.706Z,41.92
2022-12-25T02:49:33.524Z,40.97
2022-12-25T02:52:28.965Z,41.75
2022-12-25T02:55:21.766Z,40.58
2022-12-25T02:58:09.979Z,41.33
2022-12-25T03:01:02.835Z,39.08
2022-12-25T03:03:51.603Z,45.35
2022-12-25T03:06:38.917Z,44.50
2022-12-25T03:09:27.287Z,42.33
2022-12-25T03:12:02.300Z,43.88
2022-12-25T03:14:47.852Z,45.60
2022-12-25T03:17:14.596Z,43.83
2022-12-25T03:19:59.568Z,44.15
2022-12-25T03:22:49.852Z,48.50
2022-12-25T03:25:36.658Z,43.97
2022-12-25T03:28:04.173Z,46.60
2022-12-25T03:31:07.293Z,47.67
2022-12-25T03:34:10.099Z,45.85
2022-12-25T03:37:14.922Z,42.70
2022-12-25T03:39:57.316Z,42.92
2022-12-25T03:42:37.759Z,43.83
2022-12-25T03:45:47.578Z,45.75
2022-12-25T03:48:34.354Z,40.67
2022-12-25T03:51:26.071Z,38.45
2022-12-25T03:54:19.361Z,44.45
2022-12-25T03:57:05.790Z,39.95
2022-12-25T03:59:50.417Z,42.60
2022-12-25T04:05:20.361Z,34.65
2022-12-25T04:08:05.095Z,38.45
2022-12-25T04:10:49.972Z,40.08
2022-12-25T04:13:34.678Z,43.65
2022-12-25T04:16:19.604Z,38.90
2022-12-25T04:19:04.411Z,39.47
2022-12-25T04:21:49.556Z,46.08
2022-12-25T04:24:34.273Z,43.08
2022-12-25T04:27:19.114Z,43.53
2022-12-25T04:30:03.829Z,42.15
2022-12-25T04:32:48.689Z,41.70
2022-12-25T04:35:34.066Z,42.67
2022-12-25T04:38:00.467Z,40.88
2022-12-25T04:40:26.883Z,45.72
2022-12-25T04:42:53.453Z,44.30
2022-12-25T04:45:19.869Z,41.63
2022-12-25T04:47:46.312Z,43.58
2022-12-25T04:50:12.746Z,44.40
2022-12-25T04:52:40.837Z,42.85
2022-12-25T04:55:08.539Z,41.28
2022-12-25T04:57:35.225Z,42.95
2022-12-25T05:00:01.905Z,42.28
2022-12-25T05:02:28.464Z,44.35
2022-12-25T05:04:54.972Z,44.28
2022-12-25T05:07:21.314Z,42.55
2022-12-25T05:09:47.644Z,43.83
2022-12-25T05:12:14.342Z,44.40
2022-12-25T05:14:41.157Z,42.78
2022-12-25T05:17:08.038Z,43.42
2022-12-25T05:19:34.801Z,43.13
2022-12-25T05:22:01.129Z,43.53
2022-12-25T05:24:27.982Z,44.47
2022-12-25T05:26:54.787Z,41.35
2022-12-25T05:29:21.321Z,43.63
2022-12-25T05:31:47.720Z,44.53
2022-12-25T05:34:14.080Z,41.80
2022-12-25T05:36:40.443Z,45.72
2022-12-25T05:39:06.760Z,45.10
2022-12-25T05:41:34.824Z,42.83
2022-12-25T05:44:01.523Z,41.47
2022-12-25T05:46:27.922Z,43.65
2022-12-25T05:48:54.401Z,44.05
2022-12-25T05:51:20.763Z,42.13
2022-12-25T05:53:47.139Z,47.13
2022-12-25T05:56:13.505Z,46.45
2022-12-25T05:58:40.654Z,43.92
2022-12-25T06:01:19.867Z,45.00
2022-12-25T06:03:46.540Z,43.25
2022-12-25T06:06:13.432Z,44.15
2022-12-25T06:08:40.219Z,44.92
2022-12-25T06:11:07.652Z,43.45
2022-12-25T06:13:35.359Z,45.88
2022-12-25T06:16:06.378Z,46.08
2022-12-25T06:18:35.977Z,45.42
2022-12-25T06:21:07.182Z,46.88
2022-12-25T06:23:33.601Z,42.53
2022-12-25T06:26:00.634Z,43.67
2022-12-25T06:28:26.968Z,40.67
2022-12-25T06:30:53.295Z,45.00
2022-12-25T06:33:19.625Z,41.35
2022-12-25T06:35:45.962Z,41.58
2022-12-25T06:38:12.402Z,42.60
2022-12-25T06:40:38.763Z,41.30
2022-12-25T06:43:05.224Z,44.70
2022-12-25T06:45:31.630Z,44.70
2022-12-25T06:47:58.007Z,44.92
2022-12-25T06:50:24.346Z,40.42
2022-12-25T06:52:50.732Z,44.75
2022-12-25T06:55:17.093Z,44.40
2022-12-25T06:57:43.445Z,45.80
2022-12-25T07:00:10.314Z,46.60
2022-12-25T07:02:38.531Z,40.00
2022-12-25T07:05:05.559Z,43.83
2022-12-25T07:07:31.916Z,44.53
2022-12-25T07:09:58.283Z,44.17
2022-12-25T07:12:24.994Z,42.22
2022-12-25T07:14:54.564Z,43.20
2022-12-25T07:17:21.898Z,41.47
2022-12-25T07:19:49.170Z,43.72
2022-12-25T07:22:16.771Z,41.30
2022-12-25T07:24:43.136Z,43.50
2022-12-25T07:27:09.534Z,40.97
2022-12-25T07:29:35.935Z,45.15
2022-12-25T07:32:02.372Z,43.95
2022-12-25T07:34:28.809Z,44.42
2022-12-25T07:36:55.205Z,40.00
2022-12-25T07:39:21.604Z,42.85
2022-12-25T07:41:48.040Z,42.10
2022-12-25T07:44:14.933Z,44.97
2022-12-25T07:46:41.273Z,42.90
2022-12-25T07:49:07.670Z,37.45
2022-12-25T07:51:34.117Z,42.55
2022-12-25T07:54:00.604Z,44.92
2022-12-25T07:56:27.035Z,37.92
2022-12-25T07:58:53.399Z,41.55
2022-12-25T08:01:22.517Z,42.75
2022-12-25T08:04:00.819Z,41.55
2022-12-25T08:06:31.481Z,44.85
2022-12-25T08:09:03.737Z,42.05
2022-12-25T08:11:30.096Z,42.85
2022-12-25T08:13:56.478Z,43.95
2022-12-25T08:16:23.163Z,43.95
2022-12-25T08:18:49.570Z,44.72
2022-12-25T08:21:16.330Z,40.95
2022-12-25T08:23:45.168Z,42.13
2022-12-25T08:26:14.580Z,41.58
2022-12-25T08:28:41.229Z,42.28
2022-12-25T08:31:13.247Z,37.67
2022-12-25T08:33:39.951Z,36.65
2022-12-25T08:36:09.256Z,38.42
2022-12-25T08:38:35.981Z,37.42
2022-12-25T08:41:02.507Z,38.47
2022-12-25T08:43:28.938Z,40.95
2022-12-25T08:45:55.480Z,37.58
2022-12-25T08:48:22.819Z,40.28
2022-12-25T08:50:51.804Z,39.22
2022-12-25T08:53:18.554Z,41.70
2022-12-25T08:55:45.208Z,39.90
2022-12-25T08:58:11.920Z,40.30
2022-12-25T09:00:38.270Z,39.50
2022-12-25T09:03:04.774Z,39.72
2022-12-25T09:05:31.286Z,37.15
2022-12-25T09:07:57.646Z,37.42
2022-12-25T09:10:26.986Z,39.15
2022-12-25T09:12:53.317Z,37.20
2022-12-25T09:15:19.896Z,33.63
2022-12-25T09:17:46.385Z,35.25
2022-12-25T09:20:12.859Z,36.72
2022-12-25T09:22:42.297Z,34.40
2022-12-25T09:25:09.265Z,34.55
2022-12-25T09:27:35.813Z,41.78
2022-12-25T09:30:02.204Z,35.08
2022-12-25T09:32:28.552Z,37.50
2022-12-25T09:34:54.906Z,36.38
2022-12-25T09:37:21.383Z,35.90
2022-12-25T09:39:47.879Z,33.75
2022-12-25T09:42:19.033Z,35.85
2022-12-25T09:44:57.660Z,37.33
2022-12-25T09:47:29.020Z,36.97
2022-12-25T09:50:10.493Z,37.58
2022-12-25T09:52:43.610Z,38.17
2022-12-25T09:55:20.720Z,37.40
2022-12-25T09:57:53.751Z,37.78
2022-12-25T10:00:23.192Z,39.72
2022-12-25T10:03:09.990Z,42.92
2022-12-25T10:06:10.027Z,40.42
2022-12-25T10:08:57.850Z,39.80
2022-12-25T10:11:36.492Z,43.20
2022-12-25T10:14:32.762Z,46.72
2022-12-25T10:17:02.146Z,40.58
2022-12-25T10:19:34.687Z,45.20
2022-12-25T10:22:11.200Z,46.63
2022-12-25T10:24:48.285Z,49.30
2022-12-25T10:27:31.775Z,50.35
2022-12-25T10:29:59.323Z,44.65
2022-12-25T10:32:25.670Z,53.28
2022-12-25T10:34:52.169Z,50.85
2022-12-25T10:37:18.965Z,52.55
2022-12-25T10:39:46.985Z,52.45
2022-12-25T10:42:31.014Z,50.17
2022-12-25T10:45:03.145Z,49.72
2022-12-25T10:47:32.937Z,47.13
2022-12-25T10:50:01.194Z,50.72
2022-12-25T10:52:28.764Z,53.13
2022-12-25T10:54:55.538Z,53.05
2022-12-25T10:57:24.901Z,51.58
2022-12-25T10:59:56.456Z,50.75
2022-12-25T11:02:35.071Z,49.80
2022-12-25T11:05:06.119Z,49.13
2022-12-25T11:07:34.883Z,48.40
2022-12-25T11:10:06.210Z,48.75
2022-12-25T11:12:38.010Z,49.72
2022-12-25T11:15:42.618Z,50.58
2022-12-25T11:18:21.455Z,50.72
2022-12-25T11:20:58.984Z,47.22
2022-12-25T11:23:27.784Z,53.45
2022-12-25T11:26:04.977Z,52.35
2022-12-25T11:28:33.911Z,55.13
2022-12-25T11:31:22.083Z,54.05
2022-12-25T11:34:04.492Z,54.95
2022-12-25T11:36:48.912Z,51.55
2022-12-25T11:39:28.616Z,50.70
2022-12-25T11:42:03.924Z,52.70
2022-12-25T11:44:41.952Z,50.40
2022-12-25T11:47:19.077Z,54.85
2022-12-25T11:50:20.902Z,52.88
2022-12-25T11:52:48.331Z,49.15
2022-12-25T11:55:39.736Z,49.47
2022-12-25T11:58:18.634Z,50.95
2022-12-25T12:00:47.356Z,51.28
2022-12-25T12:03:21.883Z,50.15
2022-12-25T12:05:59.796Z,49.17
2022-12-25T12:08:26.166Z,49.03
2022-12-25T12:11:15.645Z,48.38
2022-12-25T12:13:53.989Z,47.85
2022-12-25T12:16:20.652Z,48.55
2022-12-25T12:18:50.569Z,47.85
2022-12-25T12:21:30.087Z,47.60
2022-12-25T12:24:26.777Z,47.42
2022-12-25T12:27:06.276Z,50.70
2022-12-25T12:29:40.466Z,47.72
2022-12-25T12:32:40.330Z,52.35
2022-12-25T12:35:10.433Z,49.00
2022-12-25T12:37:39.835Z,46.10
2022-12-25T12:40:20.769Z,47.33
2022-12-25T12:42:50.681Z,47.20
2022-12-25T12:45:20.672Z,47.28
2022-12-25T12:47:49.204Z,50.00
2022-12-25T12:50:37.726Z,47.83
2022-12-25T12:53:22.172Z,45.88
2022-12-25T12:55:49.020Z,44.58
2022-12-25T12:58:34.084Z,43.88
2022-12-25T13:01:17.167Z,46.80
2022-12-25T13:04:06.207Z,47.55
2022-12-25T13:07:17.788Z,47.33
2022-12-25T13:10:08.845Z,45.15
2022-12-25T13:12:35.417Z,50.10
2022-12-25T13:15:01.885Z,47.00
2022-12-25T13:17:28.998Z,46.78
2022-12-25T13:19:58.144Z,45.05
2022-12-25T13:22:30.518Z,46.80
2022-12-25T13:24:59.988Z,45.20
2022-12-25T13:27:28.914Z,43.90
2022-12-25T13:29:55.855Z,46.47
2022-12-25T13:32:26.084Z,48.53
2022-12-25T13:34:54.028Z,41.60
2022-12-25T13:37:25.883Z,42.92
2022-12-25T13:39:56.179Z,46.83
2022-12-25T13:42:26.294Z,45.47
2022-12-25T13:44:56.876Z,48.38
2022-12-25T13:47:37.549Z,46.47
2022-12-25T13:50:31.614Z,44.97
2022-12-25T13:53:11.021Z,47.47
2022-12-25T13:55:37.766Z,47.97
2022-12-25T13:58:15.365Z,49.63
2022-12-25T14:00:53.099Z,51.50
2022-12-25T14:03:21.850Z,51.95
2022-12-25T14:06:01.817Z,52.38
2022-12-25T14:08:33.540Z,48.72
2022-12-25T14:11:06.134Z,51.05
2022-12-25T14:13:37.481Z,51.47
2022-12-25T14:16:04.680Z,48.92
2022-12-25T14:18:31.319Z,50.92
2022-12-25T14:21:14.113Z,47.25
2022-12-25T14:23:49.268Z,54.70
2022-12-25T14:26:18.310Z,52.42
2022-12-25T14:29:17.604Z,51.45
2022-12-25T14:31:47.168Z,49.38
2022-12-25T14:34:25.003Z,51.33
2022-12-25T14:36:53.323Z,54.50
2022-12-25T14:39:38.221Z,56.63
2022-12-25T14:42:19.238Z,54.83
2022-12-25T14:44:59.474Z,51.35
2022-12-25T14:47:26.158Z,48.85
2022-12-25T14:49:54.496Z,52.22
2022-12-25T14:52:33.953Z,55.25
2022-12-25T14:55:03.690Z,50.67
2022-12-25T14:57:37.786Z,55.13
2022-12-25T15:00:24.558Z,55.67
2022-12-25T15:02:54.153Z,55.67
2022-12-25T15:05:29.670Z,66.95
2022-12-25T15:08:01.740Z,65.32
2022-12-25T15:10:58.845Z,57.70
2022-12-25T15:13:17.792Z,60.17
2022-12-25T15:16:10.184Z,52.90
2022-12-25T15:18:40.106Z,57.17
2022-12-25T15:21:09.477Z,50.88
2022-12-25T15:23:35.907Z,57.55
2022-12-25T15:26:02.275Z,54.83
2022-12-25T15:28:28.606Z,56.47
2022-12-25T15:30:55.033Z,54.50
2022-12-25T15:33:21.456Z,60.47
2022-12-25T15:35:48.779Z,58.63
2022-12-25T15:38:15.179Z,60.80
2022-12-25T15:40:42.507Z,56.80
2022-12-25T15:43:38.812Z,58.00
2022-12-25T15:45:59.369Z,54.22
2022-12-25T15:48:25.931Z,59.60
2022-12-25T15:50:52.246Z,56.72
2022-12-25T15:53:18.651Z,54.53
2022-12-25T15:55:44.998Z,54.53
2022-12-25T15:58:13.037Z,55.20
2022-12-25T16:00:39.551Z,55.55
2022-12-25T16:03:06.143Z,53.05
2022-12-25T16:05:32.619Z,55.97
2022-12-25T16:07:59.074Z,54.50
2022-12-25T16:10:25.506Z,55.13
2022-12-25T16:12:51.846Z,53.42
2022-12-25T16:15:18.191Z,52.38
2022-12-25T16:17:44.678Z,53.55
2022-12-25T16:20:11.395Z,52.53
2022-12-25T16:22:40.650Z,53.13
2022-12-25T16:25:13.235Z,49.88
2022-12-25T16:27:39.650Z,50.08
2022-12-25T16:30:06.795Z,53.10
2022-12-25T16:32:33.300Z,51.15
2022-12-25T16:34:59.661Z,49.22
2022-12-25T16:37:27.135Z,54.08
2022-12-25T16:39:53.612Z,49.70
2022-12-25T16:42:20.057Z,49.70
2022-12-25T16:44:46.411Z,45.75
2022-12-25T16:47:12.881Z,52.28
2022-12-25T16:49:39.257Z,50.33
2022-12-25T16:52:05.655Z,55.50
2022-12-25T16:54:31.976Z,53.95
2022-12-25T16:56:58.297Z,51.60
2022-12-25T16:59:24.788Z,54.58
2022-12-25T17:01:51.212Z,53.72
2022-12-25T17:04:17.661Z,51.90
2022-12-25T17:06:44.077Z,52.63
2022-12-25T17:09:10.586Z,52.75
2022-12-25T17:11:37.205Z,56.75
2022-12-25T17:14:04.477Z,55.97
2022-12-25T17:16:35.976Z,55.70
2022-12-25T17:19:09.552Z,57.90
2022-12-25T17:21:38.021Z,57.63
2022-12-25T17:24:05.191Z,57.25
2022-12-25T17:26:32.728Z,58.88
2022-12-25T17:28:59.464Z,56.35
2022-12-25T17:31:26.062Z,56.15
2022-12-25T17:33:52.450Z,58.78
2022-12-25T17:36:20.916Z,61.25
2022-12-25T17:38:48.836Z,64.03
2022-12-25T17:41:17.190Z,65.72
2022-12-25T17:43:45.559Z,67.50
2022-12-25T17:46:14.172Z,66.35
2022-12-25T17:48:40.628Z,70.00
2022-12-25T17:51:12.967Z,65.88
2022-12-25T17:53:41.574Z,66.65
2022-12-25T17:56:09.722Z,69.05
2022-12-25T17:58:37.630Z,72.95
2022-12-25T18:01:14.050Z,68.95
2022-12-25T18:03:46.248Z,76.10
2022-12-25T18:06:15.602Z,74.90
2022-12-25T18:08:43.067Z,72.55
2022-12-25T18:11:15.004Z,75.55
2022-12-25T18:13:44.613Z,69.57
2022-12-25T18:16:12.678Z,70.95
2022-12-25T18:18:39.692Z,72.15
2022-12-25T18:21:06.609Z,73.28
2022-12-25T18:23:33.840Z,68.95
2022-12-25T18:26:06.013Z,72.63
2022-12-25T18:28:33.059Z,67.88
2022-12-25T18:30:59.487Z,71.80
2022-12-25T18:33:25.906Z,69.30
2022-12-25T18:35:58.130Z,69.45
2022-12-25T18:38:24.816Z,68.53
2022-12-25T18:40:51.307Z,70.38
2022-12-25T18:43:17.759Z,70.85
2022-12-25T18:45:44.394Z,67.28
2022-12-25T18:48:10.865Z,67.72
2022-12-25T18:50:39.340Z,69.10
2022-12-25T18:53:08.000Z,68.63
2022-12-25T18:55:34.399Z,66.18
2022-12-25T18:58:01.083Z,72.30
2022-12-25T19:00:27.960Z,71.38
2022-12-25T19:02:58.891Z,64.13
2022-12-25T19:05:25.794Z,65.97
2022-12-25T19:07:52.295Z,64.97
2022-12-25T19:10:18.708Z,70.20
2022-12-25T19:12:45.142Z,66.88
2022-12-25T19:15:11.665Z,73.05
2022-12-25T19:17:38.129Z,69.15
2022-12-25T19:20:06.061Z,75.55
2022-12-25T19:22:32.485Z,67.07
2022-12-25T19:24:58.902Z,80.70
2022-12-25T19:27:25.417Z,74.00
2022-12-25T19:29:51.798Z,75.82
2022-12-25T19:32:18.113Z,79.30
2022-12-25T19:34:44.591Z,147.05
2022-12-25T19:37:11.022Z,74.68
2022-12-25T19:39:37.517Z,73.65
2022-12-25T19:42:03.994Z,74.60
2022-12-25T19:44:30.328Z,73.95
2022-12-25T19:46:56.751Z,74.05
2022-12-25T19:49:23.292Z,78.57
2022-12-25T19:51:49.783Z,79.75
2022-12-25T19:54:18.713Z,78.28
2022-12-25T19:56:46.353Z,76.07
2022-12-25T19:59:14.415Z,80.60
2022-12-25T20:01:47.451Z,77.05
2022-12-25T20:04:14.830Z,77.07
2022-12-25T20:06:42.561Z,78.38
2022-12-25T20:09:12.635Z,82.15
2022-12-25T20:11:39.603Z,84.45
2022-12-25T20:14:07.891Z,88.13
2022-12-25T20:16:37.431Z,100.10
2022-12-25T20:19:04.087Z,93.38
2022-12-25T20:21:30.614Z,88.47
2022-12-25T20:23:57.483Z,98.38
2022-12-25T20:26:27.689Z,82.25
2022-12-25T20:28:54.312Z,85.10
2022-12-25T20:31:23.931Z,87.00
2022-12-25T20:33:50.368Z,95.15
2022-12-25T20:36:18.354Z,95.00
2022-12-25T20:38:44.774Z,94.20
2022-12-25T20:41:30.578Z,102.90
2022-12-25T20:43:57.553Z,85.47
2022-12-25T20:46:24.840Z,86.55
2022-12-25T20:48:52.632Z,91.75
2022-12-25T20:51:21.751Z,92.45
2022-12-25T20:53:48.460Z,93.63
2022-12-25T20:56:20.868Z,99.35
2022-12-25T20:58:47.473Z,94.43
2022-12-25T21:01:16.997Z,95.07
2022-12-25T21:03:44.091Z,97.32
2022-12-25T21:06:11.222Z,105.70
2022-12-25T21:08:38.637Z,105.20
2022-12-25T21:11:05.548Z,100.13
2022-12-25T21:13:37.955Z,112.13
2022-12-25T21:16:06.361Z,108.15
2022-12-25T21:18:33.151Z,105.43
2022-12-25T21:21:05.647Z,108.38
2022-12-25T21:23:32.562Z,103.63
2022-12-25T21:25:58.926Z,108.55
2022-12-25T21:28:30.044Z,108.22
2022-12-25T21:31:04.993Z,117.40
2022-12-25T21:33:50.147Z,113.53
2022-12-25T21:36:17.335Z,106.57
2022-12-25T21:38:45.395Z,132.77
2022-12-25T21:41:13.845Z,136.38
2022-12-25T21:43:40.657Z,140.63
2022-12-25T21:46:09.375Z,159.18
2022-12-25T21:48:37.113Z,154.20
2022-12-25T21:51:25.108Z,160.68
2022-12-25T21:53:51.738Z,125.30
2022-12-25T21:56:18.419Z,169.25
2022-12-25T21:58:46.537Z,172.27
2022-12-25T22:01:16.705Z,189.02
2022-12-25T22:03:44.177Z,175.48
2022-12-25T22:06:29.569Z,189.38
2022-12-25T22:08:56.906Z,147.73
2022-12-25T22:11:45.496Z,192.30
2022-12-25T22:14:51.144Z,151.07
2022-12-25T22:17:42.396Z,134.80
2022-12-25T22:20:11.628Z,134.20
2022-12-25T22:22:38.007Z,182.13
2022-12-25T22:25:11.670Z,188.52
2022-12-25T22:27:39.816Z,193.18
2022-12-25T22:30:15.166Z,213.48
2022-12-25T22:32:42.091Z,156.95
2022-12-25T22:35:09.268Z,220.77
2022-12-25T22:37:36.022Z,234.98
2022-12-25T22:40:03.938Z,217.40
2022-12-25T22:42:30.552Z,187.55
2022-12-25T22:44:56.985Z,226.75
2022-12-25T22:47:23.652Z,242.88
2022-12-25T22:49:49.979Z,217.68
2022-12-25T22:52:16.527Z,230.77
2022-12-25T22:54:42.869Z,242.45
2022-12-25T22:57:09.176Z,253.70
2022-12-25T22:59:35.613Z,253.27
2022-12-25T23:02:02.157Z,252.00
2022-12-25T23:04:29.265Z,259.98
2022-12-25T23:06:56.199Z,259.35
2022-12-25T23:09:27.545Z,249.20
2022-12-25T23:11:58.411Z,262.90
2022-12-25T23:14:41.773Z,268.70
2022-12-25T23:17:31.801Z,266.63
2022-12-25T23:20:18.259Z,266.58
2022-12-25T23:23:03.906Z,244.82
2022-12-25T23:25:49.143Z,251.88
2022-12-25T23:28:35.470Z,252.43
2022-12-25T23:31:02.021Z,240.48
2022-12-25T23:33:28.572Z,274.98
2022-12-25T23:35:55.004Z,318.85
2022-12-25T23:38:21.424Z,296.20
2022-12-25T23:40:47.766Z,277.58
2022-12-25T23:43:14.301Z,259.77
2022-12-25T23:45:40.680Z,240.45
2022-12-25T23:48:07.034Z,256.50
2022-12-25T23:50:33.892Z,228.90
2022-12-25T23:53:00.716Z,236.50
2022-12-25T23:55:27.179Z,209.05
2022-12-25T23:57:53.505Z,225.50
